Time;durP1;ratioP1;P1;durP2;ratioP2;P2;SDS_P1;SDS_P2;PMS_P1;PMS_P2;Temp;Humidity;BMP_temperature;BMP_pressure;BME280_temperature;BME280_humidity;BME280_pressure;Samples;Min_cycle;Max_cycle;Signal;HPM_P1;HPM_P2
2023/01/13 00:00:34;;;;;;;;;;;11.10;99.90;;;;;;2026179;29;20086;-71
2023/01/13 00:01:34;;;;;;;;;;;11.10;99.90;;;;;;2025498;29;19919;-71
2023/01/13 00:02:35;;;;;;;;;;;11.10;99.90;;;;;;2023454;29;19912;-71
2023/01/13 00:03:36;;;;;;;;;;;11.10;99.90;;;;;;2026029;29;19911;-71
2023/01/13 00:04:36;;;;;;;;;;;11.10;99.90;;;;;;2026001;29;19922;-71
2023/01/13 00:05:37;;;;;;;;;;;11.10;99.90;;;;;;2025556;29;19915;-71
2023/01/13 00:06:37;;;;;;;;;;;11.10;99.90;;;;;;2026251;29;19998;-71
2023/01/13 00:07:39;;;;;;;;;;;11.10;99.90;;;;;;2026355;29;19921;-71
2023/01/13 00:08:39;;;;;;;;;;;11.10;99.90;;;;;;2026942;29;19961;-71
2023/01/13 00:09:40;;;;;;;;;;;11.20;99.90;;;;;;2027508;29;19918;-71
2023/01/13 00:10:40;;;;;;;;;;;11.10;99.90;;;;;;2025269;29;19907;-71
2023/01/13 00:11:41;;;;;;;;;;;11.20;99.90;;;;;;2027822;29;19958;-71
2023/01/13 00:12:42;;;;;;;;;;;11.20;99.90;;;;;;2024620;29;20001;-71
2023/01/13 00:13:42;;;;;;;;;;;11.20;99.90;;;;;;2024400;29;19982;-71
2023/01/13 00:14:43;;;;;;;;;;;11.20;99.90;;;;;;2027571;29;19911;-71
2023/01/13 00:15:43;;;;;;;;;;;11.20;99.90;;;;;;2024979;29;19911;-71
2023/01/13 00:16:44;;;;;;;;;;;11.20;99.90;;;;;;2025357;29;19922;-71
2023/01/13 00:17:44;;;;;;;;;;;11.20;99.90;;;;;;2023962;29;19915;-71
2023/01/13 00:18:45;;;;;;;;;;;11.20;99.90;;;;;;2024314;29;19908;-71
2023/01/13 00:19:46;;;;;;;;;;;11.30;99.90;;;;;;2026680;29;19919;-71
2023/01/13 00:20:47;;;;;;;;;;;11.30;99.90;;;;;;2026358;29;19911;-71
2023/01/13 00:21:47;;;;;;;;;;;11.30;99.90;;;;;;2024424;29;19986;-71
2023/01/13 00:22:48;;;;;;;;;;;11.30;99.90;;;;;;2024833;29;20395;-71
2023/01/13 00:23:49;;;;;;;;;;;11.30;99.90;;;;;;2024581;29;19922;-71
2023/01/13 00:24:49;;;;;;;;;;;11.30;99.90;;;;;;2025735;29;19915;-71
2023/01/13 00:25:50;;;;;;;;;;;11.30;99.90;;;;;;2025019;29;19917;-71
2023/01/13 00:26:51;;;;;;;;;;;11.30;99.90;;;;;;2024803;29;20616;-71
2023/01/13 00:27:52;;;;;;;;;;;11.30;99.90;;;;;;2025248;29;20379;-71
2023/01/13 00:28:56;;;;;;;;;;;11.30;99.90;;;;;;2025102;29;19915;-71
2023/01/13 00:29:57;;;;;;;;;;;11.30;99.90;;;;;;2026426;29;19946;-71
2023/01/13 00:31:04;;;;;;;;;;;11.30;99.90;;;;;;2026880;29;19917;-71
2023/01/13 00:32:05;;;;;;;;;;;11.30;99.90;;;;;;2026401;29;19915;-71
2023/01/13 00:33:05;;;;;;;;;;;11.30;99.90;;;;;;2026692;29;19954;-71
2023/01/13 00:34:06;;;;;;;;;;;11.30;99.90;;;;;;2025485;29;20376;-71
2023/01/13 00:35:06;;;;;;;;;;;11.30;99.90;;;;;;2024876;29;19911;-71
2023/01/13 00:36:09;;;;;;;;;;;11.30;99.90;;;;;;2024709;29;19907;-71
2023/01/13 00:37:11;;;;;;;;;;;11.30;99.90;;;;;;2027722;29;19911;-71
2023/01/13 00:38:12;;;;;;;;;;;11.30;99.90;;;;;;2024634;29;19908;-71
2023/01/13 00:39:12;;;;;;;;;;;11.30;99.90;;;;;;2025027;29;19923;-71
2023/01/13 00:40:13;;;;;;;;;;;11.30;99.90;;;;;;2026341;29;20367;-71
2023/01/13 00:41:15;;;;;;;;;;;11.30;99.90;;;;;;2025537;29;19911;-71
2023/01/13 00:43:35;;;;;;;;;;;11.30;99.90;;;;;;2027183;29;19915;-71
2023/01/13 00:44:35;;;;;;;;;;;11.30;99.90;;;;;;2025746;29;19911;-71
2023/01/13 00:45:36;;;;;;;;;;;11.30;99.90;;;;;;2025669;29;19958;-71
2023/01/13 00:46:37;;;;;;;;;;;11.30;99.90;;;;;;2027092;29;20323;-71
2023/01/13 00:47:37;;;;;;;;;;;11.30;99.90;;;;;;2026238;29;19912;-71
2023/01/13 00:48:38;;;;;;;;;;;11.30;99.90;;;;;;2025385;29;20014;-71
2023/01/13 00:49:38;;;;;;;;;;;11.30;99.90;;;;;;2024738;29;19919;-71
2023/01/13 00:50:39;;;;;;;;;;;11.30;99.90;;;;;;2027119;29;19919;-71
2023/01/13 00:51:40;;;;;;;;;;;11.30;99.90;;;;;;2027994;29;19907;-71
2023/01/13 00:52:40;;;;;;;;;;;11.30;99.90;;;;;;2027685;29;19933;-71
2023/01/13 00:53:42;;;;;;;;;;;11.30;99.90;;;;;;2024290;29;19934;-71
2023/01/13 00:54:42;;;;;;;;;;;11.30;99.90;;;;;;2025232;29;19967;-71
2023/01/13 00:55:43;;;;;;;;;;;11.30;99.90;;;;;;2023025;29;19958;-71
2023/01/13 00:56:43;;;;;;;;;;;11.30;99.90;;;;;;2024019;29;19911;-71
2023/01/13 00:57:44;;;;;;;;;;;11.30;99.90;;;;;;2024070;29;19911;-71
2023/01/13 00:58:45;;;;;;;;;;;11.30;99.90;;;;;;2024536;29;20375;-71
2023/01/13 00:59:46;;;;;;;;;;;11.30;99.90;;;;;;2024071;29;19918;-71
2023/01/13 01:00:47;;;;;;;;;;;11.30;99.90;;;;;;2025027;29;20279;-71
2023/01/13 01:01:47;;;;;;;;;;;11.30;99.90;;;;;;2024151;29;20021;-71
2023/01/13 01:02:48;;;;;;;;;;;11.30;99.90;;;;;;2024739;29;20010;-71
2023/01/13 01:03:49;;;;;;;;;;;11.30;99.90;;;;;;2026015;29;19923;-70
2023/01/13 01:04:50;;;;;;;;;;;11.30;99.90;;;;;;2027396;29;19911;-70
2023/01/13 01:05:50;;;;;;;;;;;11.30;99.90;;;;;;2024456;29;19911;-70
2023/01/13 01:06:51;;;;;;;;;;;11.30;99.90;;;;;;2023499;29;19958;-70
2023/01/13 01:07:51;;;;;;;;;;;11.30;99.90;;;;;;2024731;29;20434;-70
2023/01/13 01:08:52;;;;;;;;;;;11.30;99.90;;;;;;2024949;29;19927;-70
2023/01/13 01:09:53;;;;;;;;;;;11.30;99.90;;;;;;2025380;29;19911;-70
2023/01/13 01:11:04;;;;;;;;;;;11.20;99.90;;;;;;2025619;29;19911;-70
2023/01/13 01:12:04;;;;;;;;;;;11.30;99.90;;;;;;2025702;29;19917;-70
2023/01/13 01:13:05;;;;;;;;;;;11.20;99.90;;;;;;2025646;29;19923;-70
2023/01/13 01:14:05;;;;;;;;;;;11.20;99.90;;;;;;2026365;29;19958;-70
2023/01/13 01:15:08;;;;;;;;;;;11.20;99.90;;;;;;2027298;29;19918;-70
2023/01/13 01:16:10;;;;;;;;;;;11.20;99.90;;;;;;2027961;29;19915;-70
2023/01/13 01:17:10;;;;;;;;;;;11.20;99.90;;;;;;2024704;29;19918;-70
2023/01/13 01:18:11;;;;;;;;;;;11.20;99.90;;;;;;2025082;29;19911;-70
2023/01/13 01:19:11;;;;;;;;;;;11.20;99.90;;;;;;2025303;29;19934;-70
2023/01/13 01:20:12;;;;;;;;;;;11.20;99.90;;;;;;2025647;29;19907;-70
2023/01/13 01:21:13;;;;;;;;;;;11.20;99.90;;;;;;2027885;29;19914;-70
2023/01/13 01:22:14;;;;;;;;;;;11.20;99.90;;;;;;2024713;29;20310;-70
2023/01/13 01:23:14;;;;;;;;;;;11.20;99.90;;;;;;2024725;29;19916;-71
2023/01/13 01:24:15;;;;;;;;;;;11.20;99.90;;;;;;2024495;29;19963;-70
2023/01/13 01:25:15;;;;;;;;;;;11.20;99.90;;;;;;2024330;29;19918;-70
2023/01/13 01:26:20;;;;;;;;;;;11.20;99.90;;;;;;2025986;29;19912;-70
2023/01/13 01:27:21;;;;;;;;;;;11.20;99.90;;;;;;2023946;29;19927;-70
2023/01/13 01:28:21;;;;;;;;;;;11.20;99.90;;;;;;2025170;29;20005;-70
2023/01/13 01:29:21;;;;;;;;;;;11.20;99.90;;;;;;2026237;29;19954;-71
2023/01/13 01:30:22;;;;;;;;;;;11.20;99.90;;;;;;2025822;29;19907;-70
2023/01/13 01:31:24;;;;;;;;;;;11.20;99.90;;;;;;2025353;29;20371;-70
2023/01/13 01:32:24;;;;;;;;;;;11.20;99.90;;;;;;2025299;29;19993;-70
2023/01/13 01:33:25;;;;;;;;;;;11.20;99.90;;;;;;2023191;29;19912;-70
2023/01/13 01:34:26;;;;;;;;;;;11.20;99.90;;;;;;2024155;29;19911;-70
2023/01/13 01:35:26;;;;;;;;;;;11.10;99.90;;;;;;2025605;29;19918;-70
2023/01/13 01:36:28;;;;;;;;;;;11.10;99.90;;;;;;2026948;29;19918;-70
2023/01/13 01:37:29;;;;;;;;;;;11.10;99.90;;;;;;2024525;29;19930;-70
2023/01/13 01:38:29;;;;;;;;;;;11.10;99.90;;;;;;2027524;29;19958;-70
2023/01/13 01:39:30;;;;;;;;;;;11.10;99.90;;;;;;2024703;29;19926;-70
2023/01/13 01:40:30;;;;;;;;;;;11.10;99.90;;;;;;2026266;29;19955;-70
2023/01/13 01:41:32;;;;;;;;;;;11.10;99.90;;;;;;2024255;29;19987;-70
2023/01/13 01:44:15;;;;;;;;;;;11.10;99.90;;;;;;2027827;29;19915;-70
2023/01/13 01:45:22;;;;;;;;;;;11.10;99.90;;;;;;2013041;29;19908;-70
2023/01/13 01:46:22;;;;;;;;;;;11.10;99.90;;;;;;2026190;29;19907;-70
2023/01/13 01:47:23;;;;;;;;;;;11.10;99.90;;;;;;2025747;29;20386;-70
2023/01/13 01:48:24;;;;;;;;;;;11.10;99.90;;;;;;2023331;29;19994;-70
2023/01/13 01:49:28;;;;;;;;;;;11.10;99.90;;;;;;2025045;29;19919;-70
2023/01/13 01:50:29;;;;;;;;;;;11.10;99.90;;;;;;2024042;29;19911;-70
2023/01/13 01:51:31;;;;;;;;;;;11.10;99.90;;;;;;2023084;29;19915;-70
2023/01/13 01:52:33;;;;;;;;;;;11.10;99.90;;;;;;2024563;29;19915;-70
2023/01/13 01:53:34;;;;;;;;;;;11.10;99.90;;;;;;2022757;29;19916;-70
2023/01/13 01:54:39;;;;;;;;;;;11.10;99.90;;;;;;2024985;29;19916;-70
2023/01/13 01:55:40;;;;;;;;;;;11.00;99.90;;;;;;2021656;29;20355;-70
2023/01/13 01:56:41;;;;;;;;;;;11.00;99.90;;;;;;2025384;29;20274;-70
2023/01/13 01:57:48;;;;;;;;;;;11.00;99.90;;;;;;2026339;29;19915;-70
2023/01/13 01:58:50;;;;;;;;;;;11.00;99.90;;;;;;2026172;29;20333;-70
2023/01/13 01:59:51;;;;;;;;;;;11.00;99.90;;;;;;2024877;29;19911;-70
2023/01/13 02:00:51;;;;;;;;;;;11.00;99.90;;;;;;2024498;29;19920;-70
2023/01/13 02:01:51;;;;;;;;;;;11.00;99.90;;;;;;2024968;29;19925;-70
2023/01/13 02:02:52;;;;;;;;;;;11.00;99.90;;;;;;2024765;29;19911;-70
2023/01/13 02:03:56;;;;;;;;;;;11.00;99.90;;;;;;2026086;29;19912;-70
2023/01/13 02:04:58;;;;;;;;;;;11.00;99.90;;;;;;2027000;29;19918;-70
2023/01/13 02:05:58;;;;;;;;;;;11.00;99.90;;;;;;2026558;29;20094;-70
2023/01/13 02:06:59;;;;;;;;;;;11.00;99.90;;;;;;2025763;29;19958;-70
2023/01/13 02:08:00;;;;;;;;;;;11.00;99.90;;;;;;2025717;29;19908;-70
2023/01/13 02:09:00;;;;;;;;;;;11.00;99.90;;;;;;2026474;29;19915;-70
2023/01/13 02:10:03;;;;;;;;;;;11.00;99.90;;;;;;2026337;29;19918;-70
2023/01/13 02:11:03;;;;;;;;;;;11.00;99.90;;;;;;2026140;29;20450;-70
2023/01/13 02:13:23;;;;;;;;;;;11.00;99.90;;;;;;2031381;29;19910;-70
2023/01/13 02:14:25;;;;;;;;;;;10.90;99.90;;;;;;2025963;29;19951;-70
2023/01/13 02:15:26;;;;;;;;;;;10.90;99.90;;;;;;2025357;29;20268;-70
2023/01/13 02:16:26;;;;;;;;;;;10.90;99.90;;;;;;2026123;29;19911;-70
2023/01/13 02:17:32;;;;;;;;;;;10.90;99.90;;;;;;2026328;29;19911;-70
2023/01/13 02:18:48;;;;;;;;;;;10.90;99.90;;;;;;2026772;29;19918;-70
2023/01/13 02:20:07;;;;;;;;;;;10.90;99.90;;;;;;2031232;29;19919;-70
2023/01/13 02:21:24;;;;;;;;;;;10.90;99.90;;;;;;2032304;29;20018;-70
2023/01/13 02:22:34;;;;;;;;;;;10.90;99.90;;;;;;2025805;29;20007;-70
2023/01/13 02:25:22;;;;;;;;;;;10.80;99.90;;;;;;2025060;29;19915;-70
2023/01/13 02:26:39;;;;;;;;;;;10.80;99.90;;;;;;2025009;29;20293;-70
2023/01/13 02:27:43;;;;;;;;;;;10.80;99.90;;;;;;2025348;29;19958;-70
2023/01/13 02:32:11;;;;;;;;;;;10.80;99.90;;;;;;2026294;29;20355;-70
2023/01/13 02:33:18;;;;;;;;;;;10.80;99.90;;;;;;2023862;29;20263;-70
2023/01/13 02:34:21;;;;;;;;;;;10.80;99.90;;;;;;2027993;29;19911;-70
2023/01/13 02:35:26;;;;;;;;;;;10.80;99.90;;;;;;2024967;29;19923;-70
2023/01/13 02:36:59;;;;;;;;;;;10.80;99.90;;;;;;2028021;29;20618;-70
2023/01/13 02:38:00;;;;;;;;;;;10.70;99.90;;;;;;2018173;29;19963;-70
2023/01/13 02:39:08;;;;;;;;;;;10.80;99.90;;;;;;2023417;29;19912;-70
2023/01/13 02:40:25;;;;;;;;;;;10.70;99.90;;;;;;2023062;29;19916;-70
2023/01/13 02:44:13;;;;;;;;;;;10.80;99.90;;;;;;2025407;29;19915;-70
2023/01/13 02:45:17;;;;;;;;;;;10.70;99.90;;;;;;2026237;29;20009;-70
2023/01/13 02:46:25;;;;;;;;;;;10.70;99.90;;;;;;2025498;29;19915;-70
2023/01/13 02:47:27;;;;;;;;;;;10.70;99.90;;;;;;2024915;29;19915;-70
2023/01/13 02:48:29;;;;;;;;;;;10.70;99.90;;;;;;2026216;29;20711;-70
2023/01/13 02:50:02;;;;;;;;;;;10.70;99.90;;;;;;2024062;29;19919;-70
2023/01/13 02:51:12;;;;;;;;;;;10.70;99.90;;;;;;2010320;29;20472;-70
2023/01/13 02:52:14;;;;;;;;;;;10.60;99.90;;;;;;2023270;29;19915;-70
2023/01/13 02:53:27;;;;;;;;;;;10.60;99.90;;;;;;2026192;29;19962;-70
2023/01/13 02:54:28;;;;;;;;;;;10.70;99.90;;;;;;2026064;29;19930;-70
2023/01/13 02:55:33;;;;;;;;;;;10.60;99.90;;;;;;2023469;29;19911;-70
2023/01/13 02:56:35;;;;;;;;;;;10.70;99.90;;;;;;2024419;29;19918;-70
2023/01/13 02:57:36;;;;;;;;;;;10.60;99.90;;;;;;2024137;29;20338;-70
2023/01/13 02:58:38;;;;;;;;;;;10.60;99.90;;;;;;2026332;29;19908;-70
2023/01/13 02:59:39;;;;;;;;;;;10.60;99.90;;;;;;2024387;29;19923;-70
2023/01/13 03:00:40;;;;;;;;;;;10.60;99.90;;;;;;2028785;29;20319;-70
2023/01/13 03:01:41;;;;;;;;;;;10.60;99.90;;;;;;2024180;29;19975;-70
2023/01/13 03:02:41;;;;;;;;;;;10.60;99.90;;;;;;2025205;29;19912;-70
2023/01/13 03:03:43;;;;;;;;;;;10.50;99.90;;;;;;2026126;29;19927;-70
2023/01/13 03:04:45;;;;;;;;;;;10.60;99.90;;;;;;2026317;29;19915;-70
2023/01/13 03:05:47;;;;;;;;;;;10.60;99.90;;;;;;2023791;29;19911;-70
2023/01/13 03:06:55;;;;;;;;;;;10.60;99.90;;;;;;2025225;29;19911;-70
2023/01/13 03:07:55;;;;;;;;;;;10.50;99.90;;;;;;2032489;29;20340;-70
2023/01/13 03:09:02;;;;;;;;;;;10.50;99.90;;;;;;2035009;29;20015;-70
2023/01/13 03:10:11;;;;;;;;;;;10.60;99.90;;;;;;2026538;29;20001;-70
2023/01/13 03:11:13;;;;;;;;;;;10.50;99.90;;;;;;2026440;29;19915;-70
2023/01/13 03:12:16;;;;;;;;;;;10.50;99.90;;;;;;2027972;29;19915;-70
2023/01/13 03:13:25;;;;;;;;;;;10.50;99.90;;;;;;2025746;29;19986;-70
2023/01/13 03:14:31;;;;;;;;;;;10.50;99.90;;;;;;2026422;29;20015;-70
2023/01/13 03:15:39;;;;;;;;;;;10.50;99.90;;;;;;2023570;29;19966;-70
2023/01/13 03:16:44;;;;;;;;;;;10.40;99.90;;;;;;2025594;29;19911;-70
2023/01/13 03:17:54;;;;;;;;;;;10.40;99.90;;;;;;2024644;29;19911;-70
2023/01/13 03:19:10;;;;;;;;;;;10.40;99.90;;;;;;2024938;29;19957;-70
2023/01/13 03:20:27;;;;;;;;;;;10.40;99.90;;;;;;2026406;29;19930;-70
2023/01/13 03:21:39;;;;;;;;;;;10.40;99.90;;;;;;2026390;29;19917;-70
2023/01/13 03:22:55;;;;;;;;;;;10.30;99.90;;;;;;2027421;29;19911;-70
2023/01/13 03:23:59;;;;;;;;;;;10.40;99.90;;;;;;2026174;29;20322;-70
2023/01/13 03:25:02;;;;;;;;;;;10.30;99.90;;;;;;2023914;29;19915;-70
2023/01/13 03:26:15;;;;;;;;;;;10.30;99.90;;;;;;2025800;29;20290;-70
2023/01/13 03:27:29;;;;;;;;;;;10.30;99.90;;;;;;2025380;29;19915;-70
2023/01/13 03:28:32;;;;;;;;;;;10.30;99.90;;;;;;2025458;29;20037;-70
2023/01/13 03:29:35;;;;;;;;;;;10.30;99.90;;;;;;2033413;29;19979;-70
2023/01/13 03:30:41;;;;;;;;;;;10.20;99.90;;;;;;2019200;29;19931;-70
2023/01/13 03:31:52;;;;;;;;;;;10.20;99.90;;;;;;2020461;29;19912;-70
2023/01/13 03:32:55;;;;;;;;;;;10.20;99.90;;;;;;2024012;29;19918;-70
2023/01/13 03:34:01;;;;;;;;;;;10.20;99.90;;;;;;2026375;29;19954;-70
2023/01/13 03:35:13;;;;;;;;;;;10.20;99.90;;;;;;2025931;29;19912;-70
2023/01/13 03:36:16;;;;;;;;;;;10.20;99.90;;;;;;2025152;29;19921;-70
2023/01/13 03:37:18;;;;;;;;;;;10.20;99.90;;;;;;2027455;29;19911;-70
2023/01/13 03:38:25;;;;;;;;;;;10.20;99.90;;;;;;2026198;29;19923;-70
2023/01/13 03:39:29;;;;;;;;;;;10.20;99.90;;;;;;2025436;29;20008;-70
2023/01/13 03:40:35;;;;;;;;;;;10.20;99.90;;;;;;2024950;29;19994;-70
2023/01/13 03:41:38;;;;;;;;;;;10.10;99.90;;;;;;2025993;29;19911;-70
2023/01/13 03:42:40;;;;;;;;;;;10.10;99.90;;;;;;2026660;29;19915;-70
2023/01/13 03:45:09;;;;;;;;;;;10.10;99.90;;;;;;2024275;29;20348;-70
2023/01/13 03:46:13;;;;;;;;;;;10.00;99.90;;;;;;2024548;29;19914;-70
2023/01/13 03:47:17;;;;;;;;;;;10.00;99.90;;;;;;2026999;29;19907;-70
2023/01/13 03:48:19;;;;;;;;;;;10.00;99.90;;;;;;2024182;29;19911;-70
2023/01/13 03:49:21;;;;;;;;;;;9.90;99.90;;;;;;2022901;29;19922;-70
2023/01/13 03:50:27;;;;;;;;;;;10.00;99.90;;;;;;2024604;29;19938;-70
2023/01/13 03:51:29;;;;;;;;;;;9.90;99.90;;;;;;2025368;29;19990;-70
2023/01/13 03:52:35;;;;;;;;;;;9.90;99.90;;;;;;2025636;29;19911;-70
2023/01/13 03:53:40;;;;;;;;;;;9.90;99.90;;;;;;2026383;29;19911;-70
2023/01/13 03:54:46;;;;;;;;;;;9.90;99.90;;;;;;2024297;29;19915;-70
2023/01/13 03:55:49;;;;;;;;;;;9.90;99.90;;;;;;2025269;29;20002;-70
2023/01/13 03:56:53;;;;;;;;;;;9.90;99.90;;;;;;2025726;29;19911;-70
2023/01/13 03:57:56;;;;;;;;;;;9.90;99.90;;;;;;2023912;29;19922;-70
2023/01/13 03:58:58;;;;;;;;;;;9.90;99.90;;;;;;2023187;29;20002;-70
2023/01/13 03:59:59;;;;;;;;;;;9.80;99.90;;;;;;2026202;29;19911;-70
2023/01/13 04:01:12;;;;;;;;;;;9.80;99.90;;;;;;2025319;29;19926;-70
2023/01/13 04:02:16;;;;;;;;;;;9.80;99.90;;;;;;2025231;29;19927;-70
2023/01/13 04:03:24;;;;;;;;;;;9.80;99.90;;;;;;2025533;29;19914;-70
2023/01/13 04:04:33;;;;;;;;;;;9.80;99.90;;;;;;2024361;29;19912;-70
2023/01/13 04:05:37;;;;;;;;;;;9.80;99.90;;;;;;2022929;29;19915;-70
2023/01/13 04:06:46;;;;;;;;;;;9.80;99.90;;;;;;2027382;29;19911;-70
2023/01/13 04:07:50;;;;;;;;;;;9.70;99.90;;;;;;2025245;29;19908;-70
2023/01/13 04:08:53;;;;;;;;;;;9.70;99.90;;;;;;2024591;29;20014;-70
2023/01/13 04:09:58;;;;;;;;;;;9.70;99.90;;;;;;2024677;29;19915;-70
2023/01/13 04:11:04;;;;;;;;;;;9.70;99.90;;;;;;2025691;29;19919;-70
2023/01/13 04:12:08;;;;;;;;;;;9.70;99.90;;;;;;2025648;29;19907;-70
2023/01/13 04:13:15;;;;;;;;;;;9.70;99.90;;;;;;2025865;29;19930;-70
2023/01/13 04:14:18;;;;;;;;;;;9.70;99.90;;;;;;2027068;29;19918;-70
2023/01/13 04:15:20;;;;;;;;;;;9.70;99.90;;;;;;2025096;29;19961;-70
2023/01/13 04:16:20;;;;;;;;;;;9.70;99.90;;;;;;2026692;29;19942;-70
2023/01/13 04:17:23;;;;;;;;;;;9.60;99.90;;;;;;2025591;29;19911;-70
2023/01/13 04:18:25;;;;;;;;;;;9.60;99.90;;;;;;2025449;29;19923;-70
2023/01/13 04:19:25;;;;;;;;;;;9.60;99.90;;;;;;2026150;29;19919;-70
2023/01/13 04:20:26;;;;;;;;;;;9.60;99.90;;;;;;2025729;29;19958;-70
2023/01/13 04:21:27;;;;;;;;;;;9.60;99.90;;;;;;2025930;29;19918;-70
2023/01/13 04:22:27;;;;;;;;;;;9.60;99.90;;;;;;2024700;29;20257;-69
2023/01/13 04:23:28;;;;;;;;;;;9.60;99.90;;;;;;2023544;29;19950;-69
2023/01/13 04:24:29;;;;;;;;;;;9.60;99.90;;;;;;2027973;29;19918;-69
2023/01/13 04:25:29;;;;;;;;;;;9.50;99.90;;;;;;2023798;29;20615;-69
2023/01/13 04:26:29;;;;;;;;;;;9.60;99.90;;;;;;2025873;29;19953;-69
2023/01/13 04:27:30;;;;;;;;;;;9.50;99.90;;;;;;2024798;29;19958;-69
2023/01/13 04:28:32;;;;;;;;;;;9.50;99.90;;;;;;2023710;29;20391;-69
2023/01/13 04:29:32;;;;;;;;;;;9.50;99.90;;;;;;2025152;29;20415;-69
2023/01/13 04:30:33;;;;;;;;;;;9.50;99.90;;;;;;2024180;29;19915;-71
2023/01/13 04:31:33;;;;;;;;;;;9.50;99.90;;;;;;2026534;29;19915;-71
2023/01/13 04:32:34;;;;;;;;;;;9.50;99.90;;;;;;2024480;29;20006;-71
2023/01/13 04:33:34;;;;;;;;;;;9.50;99.90;;;;;;2024834;29;19907;-71
2023/01/13 04:34:35;;;;;;;;;;;9.50;99.90;;;;;;2024007;29;19911;-71
2023/01/13 04:35:35;;;;;;;;;;;9.50;99.90;;;;;;2023609;29;20443;-71
2023/01/13 04:36:36;;;;;;;;;;;9.50;99.90;;;;;;2024901;29;19964;-71
2023/01/13 04:37:36;;;;;;;;;;;9.50;99.90;;;;;;2025934;29;19918;-71
2023/01/13 04:38:36;;;;;;;;;;;9.50;99.90;;;;;;2026332;29;19935;-69
2023/01/13 04:39:37;;;;;;;;;;;9.50;99.90;;;;;;2026168;29;20265;-71
2023/01/13 04:40:38;;;;;;;;;;;9.40;99.90;;;;;;2026984;29;19999;-71
2023/01/13 04:41:57;;;;;;;;;;;9.50;99.90;;;;;;2027441;29;19915;-71
2023/01/13 04:42:57;;;;;;;;;;;9.50;99.90;;;;;;2025350;29;20295;-71
2023/01/13 04:43:58;;;;;;;;;;;9.40;99.90;;;;;;2024504;29;19919;-71
2023/01/13 04:44:58;;;;;;;;;;;9.40;99.90;;;;;;2025031;29;19910;-71
2023/01/13 04:45:58;;;;;;;;;;;9.40;99.90;;;;;;2025620;29;19915;-71
2023/01/13 04:46:59;;;;;;;;;;;9.40;99.90;;;;;;2025742;29;19915;-71
2023/01/13 04:48:00;;;;;;;;;;;9.40;99.90;;;;;;2025007;29;19915;-71
2023/01/13 04:49:00;;;;;;;;;;;9.40;99.90;;;;;;2025203;29;20453;-71
2023/01/13 04:50:01;;;;;;;;;;;9.40;99.90;;;;;;2024471;29;19915;-71
2023/01/13 04:51:01;;;;;;;;;;;9.40;99.90;;;;;;2025352;29;19916;-71
2023/01/13 04:52:02;;;;;;;;;;;9.40;99.90;;;;;;2025599;29;19985;-71
2023/01/13 04:53:06;;;;;;;;;;;9.40;99.90;;;;;;2024636;29;19959;-71
2023/01/13 04:54:08;;;;;;;;;;;9.40;99.90;;;;;;2026097;29;19907;-71
2023/01/13 04:55:09;;;;;;;;;;;9.40;99.90;;;;;;2023898;29;20261;-71
2023/01/13 04:56:09;;;;;;;;;;;9.50;99.90;;;;;;2025594;29;19912;-71
2023/01/13 04:57:09;;;;;;;;;;;9.40;99.90;;;;;;2026561;29;19911;-71
2023/01/13 04:58:10;;;;;;;;;;;9.40;99.90;;;;;;2022857;29;20419;-71
2023/01/13 04:59:11;;;;;;;;;;;9.50;99.90;;;;;;2023179;29;20013;-71
2023/01/13 05:00:14;;;;;;;;;;;9.40;99.90;;;;;;2024344;29;19912;-71
2023/01/13 05:01:14;;;;;;;;;;;9.40;99.90;;;;;;2024541;29;19918;-71
2023/01/13 05:02:18;;;;;;;;;;;9.40;99.90;;;;;;2025117;29;19911;-71
2023/01/13 05:03:19;;;;;;;;;;;9.40;99.90;;;;;;2026163;29;19915;-71
2023/01/13 05:04:19;;;;;;;;;;;9.40;99.90;;;;;;2024014;29;19921;-71
2023/01/13 05:05:20;;;;;;;;;;;9.40;99.90;;;;;;2025111;29;19911;-71
2023/01/13 05:06:20;;;;;;;;;;;9.50;99.90;;;;;;2023178;29;20280;-71
2023/01/13 05:07:20;;;;;;;;;;;9.50;99.90;;;;;;2024495;29;20541;-71
2023/01/13 05:08:21;;;;;;;;;;;9.50;99.90;;;;;;2026120;29;19915;-71
2023/01/13 05:09:21;;;;;;;;;;;9.50;99.90;;;;;;2024043;29;19916;-71
2023/01/13 05:10:22;;;;;;;;;;;9.50;99.90;;;;;;2025507;29;20010;-71
2023/01/13 05:17:02;;;;;;;;;;;9.50;99.90;;;;;;2007965;29;20012;-71
2023/01/13 05:18:02;;;;;;;;;;;9.50;99.90;;;;;;2026725;29;20279;-71
2023/01/13 05:19:03;;;;;;;;;;;9.60;99.90;;;;;;2024898;29;19948;-71
2023/01/13 05:20:04;;;;;;;;;;;9.50;99.90;;;;;;2023907;29;19953;-71
2023/01/13 05:25:20;;;;;;;;;;;9.50;99.90;;;;;;2025641;29;19922;-71
2023/01/13 05:25:23;;;;;;;;;;;9.50;99.90;;;;;;2024531;29;19919;-71
2023/01/13 05:26:23;;;;;;;;;;;9.50;99.90;;;;;;2022237;29;19907;-71
2023/01/13 05:27:24;;;;;;;;;;;9.50;99.90;;;;;;2022435;29;19915;-71
2023/01/13 05:28:24;;;;;;;;;;;9.50;99.90;;;;;;2022934;29;19915;-71
2023/01/13 05:29:25;;;;;;;;;;;9.50;99.90;;;;;;2022736;29;19915;-71
2023/01/13 05:30:27;;;;;;;;;;;9.50;99.90;;;;;;2026144;29;19908;-71
2023/01/13 05:31:27;;;;;;;;;;;9.50;99.90;;;;;;2024555;29;19907;-71
2023/01/13 05:32:28;;;;;;;;;;;9.50;99.90;;;;;;2027317;29;19922;-71
2023/01/13 05:33:28;;;;;;;;;;;9.50;99.90;;;;;;2024123;29;19962;-70
2023/01/13 05:34:31;;;;;;;;;;;9.50;99.90;;;;;;2024113;29;20003;-69
2023/01/13 05:35:31;;;;;;;;;;;9.50;99.90;;;;;;2023518;29;19912;-69
2023/01/13 05:36:31;;;;;;;;;;;9.50;99.90;;;;;;2025544;29;19919;-69
2023/01/13 05:37:32;;;;;;;;;;;9.50;99.90;;;;;;2023152;29;19920;-69
2023/01/13 05:38:32;;;;;;;;;;;9.50;99.90;;;;;;2023953;29;19919;-69
2023/01/13 05:43:32;;;;;;;;;;;9.50;99.90;;;;;;2023814;29;19915;-69
2023/01/13 05:44:32;;;;;;;;;;;9.50;99.90;;;;;;2026492;29;19922;-69
2023/01/13 05:45:32;;;;;;;;;;;9.50;99.90;;;;;;2025867;29;19911;-69
2023/01/13 05:46:33;;;;;;;;;;;9.50;99.90;;;;;;2027160;29;19915;-69
2023/01/13 05:47:33;;;;;;;;;;;9.50;99.90;;;;;;2025310;29;19987;-69
2023/01/13 05:48:35;;;;;;;;;;;9.50;99.90;;;;;;2025297;29;19915;-69
2023/01/13 05:49:36;;;;;;;;;;;9.50;99.90;;;;;;2027165;29;19922;-70
2023/01/13 05:50:36;;;;;;;;;;;9.50;99.90;;;;;;2025228;29;20379;-70
2023/01/13 05:51:37;;;;;;;;;;;9.50;99.90;;;;;;2024239;29;19926;-70
2023/01/13 05:52:37;;;;;;;;;;;9.40;99.90;;;;;;2026573;29;20301;-69
2023/01/13 05:53:39;;;;;;;;;;;9.40;99.90;;;;;;2025746;29;19911;-69
2023/01/13 05:54:40;;;;;;;;;;;9.40;99.90;;;;;;2025682;29;19995;-70
2023/01/13 05:55:41;;;;;;;;;;;9.50;99.90;;;;;;2025410;29;19907;-69
2023/01/13 05:56:41;;;;;;;;;;;9.40;99.90;;;;;;2026596;29;19913;-69
2023/01/13 05:57:42;;;;;;;;;;;9.40;99.90;;;;;;2024219;29;19926;-70
2023/01/13 05:58:43;;;;;;;;;;;9.40;99.90;;;;;;2026071;29;20451;-69
2023/01/13 05:59:43;;;;;;;;;;;9.50;99.90;;;;;;2023243;29;20006;-69
2023/01/13 06:00:44;;;;;;;;;;;9.40;99.90;;;;;;2025569;29;19971;-69
2023/01/13 06:01:45;;;;;;;;;;;9.50;99.90;;;;;;2024618;29;19931;-69
2023/01/13 06:02:45;;;;;;;;;;;9.40;99.90;;;;;;2025440;29;19916;-69
2023/01/13 06:03:46;;;;;;;;;;;9.50;99.90;;;;;;2026979;29;19916;-70
2023/01/13 06:04:46;;;;;;;;;;;9.40;99.90;;;;;;2026192;29;19922;-70
2023/01/13 06:05:47;;;;;;;;;;;9.50;99.90;;;;;;2027740;29;19914;-69
2023/01/13 06:06:47;;;;;;;;;;;9.50;99.90;;;;;;2026553;29;19974;-69
2023/01/13 06:07:48;;;;;;;;;;;9.50;99.90;;;;;;2027622;29;20298;-69
2023/01/13 06:08:48;;;;;;;;;;;9.50;99.90;;;;;;2027334;29;20321;-69
2023/01/13 06:09:49;;;;;;;;;;;9.50;99.90;;;;;;2024099;29;20395;-69
2023/01/13 06:10:49;;;;;;;;;;;9.50;99.90;;;;;;2022390;29;19919;-70
2023/01/13 06:11:49;;;;;;;;;;;9.50;99.90;;;;;;2024820;29;20708;-70
2023/01/13 06:12:50;;;;;;;;;;;9.40;99.90;;;;;;2026258;29;19910;-70
2023/01/13 06:13:50;;;;;;;;;;;9.50;99.90;;;;;;2026757;29;20232;-70
2023/01/13 06:14:51;;;;;;;;;;;9.40;99.90;;;;;;2027117;29;19915;-69
2023/01/13 06:15:55;;;;;;;;;;;9.40;99.90;;;;;;2025868;29;20139;-69
2023/01/13 06:16:55;;;;;;;;;;;9.40;99.90;;;;;;2024814;29;19920;-70
2023/01/13 06:17:56;;;;;;;;;;;9.40;99.90;;;;;;2025086;29;19998;-69
2023/01/13 06:18:56;;;;;;;;;;;9.50;99.90;;;;;;2027020;29;19997;-71
2023/01/13 06:19:57;;;;;;;;;;;9.40;99.90;;;;;;2027542;29;20275;-69
2023/01/13 06:20:57;;;;;;;;;;;9.40;99.90;;;;;;2024447;29;19911;-69
2023/01/13 06:21:58;;;;;;;;;;;9.40;99.90;;;;;;2027762;29;20356;-69
2023/01/13 06:22:59;;;;;;;;;;;9.50;99.90;;;;;;2025021;29;19926;-69
2023/01/13 06:24:00;;;;;;;;;;;9.50;99.90;;;;;;2026015;29;20376;-69
2023/01/13 06:25:00;;;;;;;;;;;9.50;99.90;;;;;;2027286;29;20788;-69
2023/01/13 06:26:08;;;;;;;;;;;9.50;99.90;;;;;;2025433;29;19962;-71
2023/01/13 06:27:09;;;;;;;;;;;9.40;99.90;;;;;;2025795;29;20341;-71
2023/01/13 06:28:09;;;;;;;;;;;9.40;99.90;;;;;;2026757;29;20286;-71
2023/01/13 06:29:13;;;;;;;;;;;9.50;99.90;;;;;;2025148;29;20256;-71
2023/01/13 06:30:14;;;;;;;;;;;9.50;99.90;;;;;;2027237;29;20042;-71
2023/01/13 06:31:15;;;;;;;;;;;9.40;99.90;;;;;;2025799;29;20624;-71
2023/01/13 06:32:17;;;;;;;;;;;9.40;99.90;;;;;;2022053;29;19927;-69
2023/01/13 06:33:21;;;;;;;;;;;9.40;99.90;;;;;;2025444;29;19915;-71